Terminal Aerodrome Forecast
Issued by NWS

Home | Current Version | Previous Version | Text Only | Print | Product List | Glossary On
Versions: 1 2 3 4 5 6 7 8 9 10 11 12 13 14 15 16 17 18 19 20 21 22 23 24 25 26 27 28 29
000
FTUS46 KPDT 191400 AAC
TAFDLS
TAF AMD
KDLS 191433Z 1915/2012 VRB03KT P6SM OVC004
      TEMPO 1915/1919 4SM BR SCT004 OVC010
     FM192200 VRB04KT P6SM OVC025
     FM200400 10002KT 4SM BR OVC015=

USA.gov is the U.S. government's official web portal to all federal, state and local government web resources and services.